Time;durP1;ratioP1;P1;durP2;ratioP2;P2;SDS_P1;SDS_P2;PMS_P1;PMS_P2;Temp;Humidity;BMP_temperature;BMP_pressure;BME280_temperature;BME280_humidity;BME280_pressure;Samples;Min_cycle;Max_cycle;Signal;HPM_P1;HPM_P2
2021/06/18 00:01:32;;;;;;;10.18;5.53;;;;;;;17.91;63.77;100818.19;5080660;28;20333;-57
2021/06/18 00:04:09;;;;;;;11.02;5.80;;;;;;;17.77;63.70;100816.00;5065042;28;20036;-58
2021/06/18 00:06:35;;;;;;;6.55;5.13;;;;;;;17.76;64.45;100812.53;5063912;28;20034;-57
2021/06/18 00:09:01;;;;;;;8.23;5.63;;;;;;;17.77;64.94;100821.22;5064785;28;20031;-58
2021/06/18 00:11:27;;;;;;;12.70;5.60;;;;;;;17.70;64.02;100815.34;5064893;28;20017;-57
2021/06/18 00:13:53;;;;;;;6.35;4.75;;;;;;;17.66;64.40;100826.84;5064681;28;20021;-57
2021/06/18 00:16:18;;;;;;;7.97;4.13;;;;;;;17.63;64.39;100826.06;5064906;28;20017;-57
2021/06/18 00:18:44;;;;;;;8.57;4.38;;;;;;;17.50;64.54;100829.09;5064713;28;20040;-57
2021/06/18 00:21:10;;;;;;;7.38;3.92;;;;;;;17.33;64.75;100834.88;5064942;28;20044;-56
2021/06/18 00:23:36;;;;;;;8.77;4.35;;;;;;;17.48;64.61;100837.91;5064682;28;20013;-57
2021/06/18 00:26:02;;;;;;;9.32;4.28;;;;;;;17.59;64.63;100852.38;5064685;28;20032;-57
2021/06/18 00:28:28;;;;;;;11.30;4.90;;;;;;;17.64;64.13;100844.34;5064546;28;20090;-57
2021/06/18 00:31:08;;;;;;;9.82;4.00;;;;;;;17.65;64.35;100846.06;5064686;28;20044;-57
2021/06/18 00:33:34;;;;;;;11.57;4.80;;;;;;;17.68;64.96;100850.38;5079989;28;20052;-58
2021/06/18 00:35:59;;;;;;;9.13;4.43;;;;;;;17.69;64.32;100858.19;5064576;28;20021;-58
2021/06/18 00:38:25;;;;;;;7.05;4.53;;;;;;;17.73;64.67;100859.78;5064442;28;20052;-58
2021/06/18 00:40:51;;;;;;;8.63;4.43;;;;;;;17.74;64.26;100851.03;5064183;28;20055;-58
2021/06/18 00:43:18;;;;;;;15.68;4.63;;;;;;;17.74;64.63;100853.66;5064356;28;20075;-57
2021/06/18 00:45:44;;;;;;;9.60;4.40;;;;;;;17.66;64.26;100842.56;5063195;28;20251;-57
2021/06/18 00:48:11;;;;;;;6.93;4.18;;;;;;;17.78;64.81;100857.03;5064094;28;20210;-57
2021/06/18 00:50:38;;;;;;;8.32;4.15;;;;;;;17.71;64.48;100847.66;5064166;28;20064;-58
2021/06/18 00:53:05;;;;;;;8.00;4.50;;;;;;;17.74;64.52;100858.03;5063977;28;20368;-58
2021/06/18 00:55:33;;;;;;;9.75;4.70;;;;;;;17.43;64.55;100802.25;5063928;28;20060;-57
2021/06/18 00:58:00;;;;;;;6.75;4.25;;;;;;;17.67;64.44;100843.41;5064098;28;20049;-57
2021/06/18 01:00:26;;;;;;;9.10;4.63;;;;;;;17.72;64.89;100854.59;5062986;28;20044;-58
2021/06/18 01:02:52;;;;;;;8.13;4.30;;;;;;;17.70;64.40;100857.28;5063694;28;20016;-57
2021/06/18 01:05:20;;;;;;;9.20;4.03;;;;;;;17.33;64.81;100824.41;5063939;28;20021;-57
2021/06/18 01:08:00;;;;;;;7.82;4.82;;;;;;;17.64;64.77;100867.94;5063736;28;20067;-57
2021/06/18 01:10:45;;;;;;;10.88;4.63;;;;;;;17.63;64.88;100865.38;5063950;28;20060;-57
2021/06/18 01:13:20;;;;;;;9.60;4.35;;;;;;;17.65;64.70;100861.78;5063732;28;20288;-57
2021/06/18 01:16:08;;;;;;;7.03;4.93;;;;;;;17.63;65.31;100862.75;5064602;28;20064;-57
2021/06/18 01:18:59;;;;;;;8.80;4.55;;;;;;;17.66;64.97;100866.13;5063423;28;20051;-57
2021/06/18 01:21:35;;;;;;;9.82;4.07;;;;;;;17.42;64.91;100820.63;5072093;28;20048;-57
2021/06/18 01:24:36;;;;;;;9.70;4.45;;;;;;;17.39;65.06;100816.34;5083483;28;20265;-57
2021/06/18 01:27:15;;;;;;;8.93;4.38;;;;;;;17.59;65.50;100862.00;5079877;28;20060;-57
2021/06/18 01:29:44;;;;;;;6.20;4.60;;;;;;;17.60;65.43;100874.22;5074114;28;20052;-57
2021/06/18 01:32:18;;;;;;;7.45;4.45;;;;;;;17.36;65.87;100832.16;5083422;28;20063;-57
2021/06/18 01:34:45;;;;;;;11.32;4.47;;;;;;;17.63;65.35;100866.25;5083313;28;20130;-57
2021/06/18 01:37:15;;;;;;;10.50;4.88;;;;;;;17.34;65.93;100814.75;5078452;28;20059;-57
2021/06/18 01:39:43;;;;;;;10.95;4.70;;;;;;;17.62;66.27;100869.75;5063202;28;20279;-57
2021/06/18 01:42:11;;;;;;;9.68;4.50;;;;;;;17.37;65.77;100819.91;5063266;28;20040;-57
2021/06/18 01:44:37;;;;;;;8.00;4.45;;;;;;;17.65;66.13;100874.06;5063138;28;20329;-57
2021/06/18 01:47:07;;;;;;;10.35;5.18;;;;;;;17.68;66.42;100876.56;5063051;28;20048;-56
2021/06/18 01:49:36;;;;;;;10.27;5.00;;;;;;;17.68;65.87;100871.31;5062945;28;20033;-56
2021/06/18 01:52:05;;;;;;;9.45;4.95;;;;;;;17.29;65.90;100822.78;5062978;28;20269;-56
2021/06/18 01:54:33;;;;;;;11.25;4.72;;;;;;;17.61;66.65;100873.28;5062926;28;20048;-56
2021/06/18 01:57:01;;;;;;;8.98;5.15;;;;;;;17.71;66.13;100881.72;5062341;28;20056;-56
2021/06/18 01:59:31;;;;;;;11.55;5.85;;;;;;;17.73;66.29;100890.41;5062901;28;20059;-57
2021/06/18 02:01:59;;;;;;;8.82;4.85;;;;;;;17.73;66.51;100880.75;5061867;28;20056;-58
2021/06/18 02:04:26;;;;;;;16.10;5.50;;;;;;;17.71;66.44;100893.03;5062669;28;20033;-58
2021/06/18 02:06:53;;;;;;;12.13;4.80;;;;;;;17.67;66.99;100888.81;5062876;28;20048;-58
2021/06/18 02:09:21;;;;;;;10.23;4.47;;;;;;;17.72;67.28;100886.06;5062859;28;20044;-58
2021/06/18 02:11:48;;;;;;;12.05;5.40;;;;;;;17.80;67.00;100886.66;5062778;28;20045;-58
2021/06/18 02:14:18;;;;;;;14.30;5.65;;;;;;;17.84;67.37;100888.28;5062594;28;20036;-58
2021/06/18 02:16:51;;;;;;;10.50;4.97;;;;;;;17.56;66.95;100834.13;5061341;28;20044;-58
2021/06/18 02:19:18;;;;;;;10.52;4.97;;;;;;;17.92;66.70;100895.94;5062607;28;20049;-58
2021/06/18 02:21:47;;;;;;;7.72;3.97;;;;;;;17.97;66.77;100904.50;5062549;28;20044;-58
2021/06/18 02:24:15;;;;;;;7.82;4.90;;;;;;;17.98;66.92;100908.81;5062485;28;20047;-58
2021/06/18 02:26:42;;;;;;;9.23;4.93;;;;;;;18.05;66.73;100906.88;5062418;28;20296;-57
2021/06/18 02:29:09;;;;;;;8.57;4.60;;;;;;;18.11;66.76;100901.41;5042505;28;20057;-57
2021/06/18 02:31:38;;;;;;;9.23;4.70;;;;;;;18.19;66.58;100903.78;5042383;28;20087;-57
2021/06/18 02:34:06;;;;;;;7.70;4.30;;;;;;;18.23;66.85;100926.38;5042473;28;20046;-58
2021/06/18 02:36:32;;;;;;;9.85;4.72;;;;;;;18.28;66.04;100912.22;5042532;28;20061;-58
2021/06/18 02:38:58;;;;;;;13.07;4.80;;;;;;;18.32;66.23;100915.56;5060428;28;20021;-58
2021/06/18 02:41:24;;;;;;;8.57;4.40;;;;;;;18.43;66.21;100929.19;5070730;28;20055;-58
2021/06/18 02:43:50;;;;;;;6.95;4.70;;;;;;;18.46;65.95;100926.44;5082149;28;20044;-58
2021/06/18 02:46:43;;;;;;;8.90;4.47;;;;;;;18.25;66.08;100878.19;5082374;28;20027;-58
2021/06/18 02:49:13;;;;;;;8.80;5.13;;;;;;;18.60;65.79;100933.84;5068538;28;20048;-58
2021/06/18 02:51:43;;;;;;;13.20;5.10;;;;;;;18.46;65.86;100899.38;5082327;28;20051;-58
2021/06/18 02:54:24;;;;;;;10.70;4.90;;;;;;;18.71;66.18;100938.75;5082331;28;20048;-57
2021/06/18 02:56:57;;;;;;;12.93;6.60;;;;;;;18.49;65.74;100896.63;5081498;28;20064;-58
2021/06/18 02:59:31;;;;;;;12.35;6.85;;;;;;;18.53;64.89;100890.38;5062313;28;20051;-57
2021/06/18 03:02:00;;;;;;;17.00;8.65;;;;;;;18.62;64.85;100900.53;5062161;28;20277;-57
2021/06/18 03:04:32;;;;;;;18.83;9.32;;;;;;;18.68;64.30;100895.97;5062063;28;20071;-57
2021/06/18 03:07:05;;;;;;;17.90;9.23;;;;;;;19.06;63.25;100954.16;5061901;28;20060;-57
2021/06/18 03:09:36;;;;;;;23.20;10.25;;;;;;;18.88;63.34;100903.16;5065713;28;20046;-57
2021/06/18 03:12:03;;;;;;;17.13;9.80;;;;;;;19.27;63.05;100942.03;5065913;28;20032;-57
2021/06/18 03:14:35;;;;;;;25.10;11.27;;;;;;;19.03;57.68;100886.84;5066164;28;20314;-57
2021/06/18 03:17:03;;;;;;;19.05;9.75;;;;;;;19.38;57.42;100920.59;5065775;28;20354;-57
2021/06/18 03:19:35;;;;;;;22.80;10.38;;;;;;;19.26;56.70;100878.09;5065857;28;20052;-57
2021/06/18 03:22:05;;;;;;;21.52;9.60;;;;;;;19.35;56.62;100882.13;5065781;28;20052;-57
2021/06/18 03:24:32;;;;;;;25.85;10.25;;;;;;;19.78;55.64;100922.53;5065708;28;20239;-57
2021/06/18 03:27:00;;;;;;;25.75;9.70;;;;;;;19.90;56.42;100928.25;5064573;28;20045;-57
2021/06/18 03:29:30;;;;;;;21.92;10.02;;;;;;;19.95;55.55;100937.66;5065664;28;20052;-57
2021/06/18 03:32:00;;;;;;;16.02;9.50;;;;;;;19.80;56.13;100885.69;5065497;28;20333;-58
2021/06/18 03:34:28;;;;;;;22.65;9.70;;;;;;;20.24;55.57;100937.38;5065574;28;20052;-58
2021/06/18 03:36:56;;;;;;;18.42;9.23;;;;;;;20.44;54.20;100921.59;5065270;28;20040;-58
2021/06/18 03:39:23;;;;;;;20.20;9.43;;;;;;;20.86;55.07;100933.84;5065390;28;20069;-58
2021/06/18 03:41:49;;;;;;;22.20;9.50;;;;;;;20.86;53.30;100936.50;5065421;28;20049;-58
2021/06/18 03:44:15;;;;;;;19.92;9.35;;;;;;;20.85;53.02;100940.03;5065318;28;20052;-59
2021/06/18 03:46:43;;;;;;;19.77;9.10;;;;;;;20.81;53.36;100934.97;5065207;28;20052;-58
2021/06/18 03:49:09;;;;;;;18.67;8.45;;;;;;;20.89;54.34;100940.75;5065232;28;20036;-58
2021/06/18 03:51:36;;;;;;;19.10;8.40;;;;;;;21.02;54.46;100938.41;5065461;28;20063;-59
2021/06/18 03:54:03;;;;;;;22.45;9.15;;;;;;;21.09;53.87;100936.38;5065297;28;20321;-60
2021/06/18 03:56:30;;;;;;;18.02;8.45;;;;;;;21.16;52.49;100941.31;5065298;28;20044;-58
2021/06/18 03:58:58;;;;;;;17.45;8.00;;;;;;;21.16;51.47;100948.34;5064983;28;20040;-57
2021/06/18 04:01:26;;;;;;;13.65;6.70;;;;;;;21.26;50.88;100948.78;5065059;28;20040;-57
2021/06/18 04:03:54;;;;;;;12.50;7.72;;;;;;;21.30;51.77;100943.28;5064841;28;20033;-58
2021/06/18 04:06:21;;;;;;;14.85;6.65;;;;;;;21.37;50.00;100957.03;5064830;28;20044;-58
2021/06/18 04:08:48;;;;;;;14.10;7.05;;;;;;;21.40;50.77;100949.00;5064812;28;20051;-57
2021/06/18 04:11:14;;;;;;;11.80;5.80;;;;;;;21.42;47.56;100955.06;5063555;28;20053;-58
2021/06/18 04:13:42;;;;;;;13.93;5.85;;;;;;;21.48;48.94;100962.69;5064524;28;20261;-58
2021/06/18 04:16:11;;;;;;;12.32;5.65;;;;;;;21.61;49.32;100952.44;5064696;28;20044;-57
2021/06/18 04:18:42;;;;;;;9.25;5.18;;;;;;;21.60;48.59;100971.81;5064457;28;20048;-58
2021/06/18 04:21:12;;;;;;;11.93;5.32;;;;;;;21.43;49.31;100914.56;5064768;28;20044;-57
2021/06/18 04:23:38;;;;;;;12.02;5.20;;;;;;;21.72;48.48;100958.06;5064470;28;20059;-57
2021/06/18 04:26:04;;;;;;;9.52;4.80;;;;;;;21.75;47.75;100962.34;5064235;28;20048;-58
2021/06/18 04:28:30;;;;;;;9.30;4.47;;;;;;;21.86;47.90;100964.44;5064173;28;20047;-57
2021/06/18 04:30:56;;;;;;;10.07;4.03;;;;;;;21.95;48.07;100958.75;5064488;28;20017;-57
2021/06/18 04:33:23;;;;;;;8.98;3.90;;;;;;;21.88;46.75;100944.16;5064352;28;20063;-56
2021/06/18 04:35:49;;;;;;;10.32;4.07;;;;;;;21.95;46.75;100950.84;5063151;28;20063;-56
2021/06/18 04:38:15;;;;;;;9.93;4.22;;;;;;;22.08;47.52;100950.25;5063037;28;20021;-58
2021/06/18 04:40:41;;;;;;;4.57;3.38;;;;;;;22.10;46.65;100959.75;5063389;28;20053;-59
2021/06/18 04:43:07;;;;;;;9.50;3.35;;;;;;;22.10;44.92;100959.75;5063697;28;20048;-57
2021/06/18 04:45:33;;;;;;;6.40;2.85;;;;;;;22.16;45.19;100959.47;5063999;28;20261;-58
2021/06/18 04:47:59;;;;;;;5.25;2.67;;;;;;;22.31;45.11;100967.56;5063793;28;20059;-57
2021/06/18 04:50:25;;;;;;;4.20;2.80;;;;;;;22.47;45.88;100973.81;5064131;28;20254;-56
2021/06/18 04:52:52;;;;;;;3.30;2.70;;;;;;;22.52;46.17;100970.94;5064214;28;20051;-57
2021/06/18 04:55:18;;;;;;;5.22;2.83;;;;;;;22.57;45.87;100974.19;5064108;28;20048;-56
2021/06/18 04:57:45;;;;;;;4.93;2.40;;;;;;;22.64;45.98;100969.47;5063749;28;20048;-57
2021/06/18 05:00:13;;;;;;;3.97;2.55;;;;;;;22.75;45.56;100975.88;5063926;28;20254;-58
2021/06/18 05:02:39;;;;;;;7.28;2.80;;;;;;;22.69;42.47;100975.38;5063907;28;20033;-57
2021/06/18 05:05:05;;;;;;;4.30;2.00;;;;;;;22.87;43.19;100969.13;5064095;28;20032;-57
2021/06/18 05:07:31;;;;;;;4.25;2.25;;;;;;;22.93;43.98;100966.16;5063621;28;20135;-57
2021/06/18 05:09:57;;;;;;;6.93;2.30;;;;;;;23.06;43.30;100968.16;5063756;28;20025;-58
2021/06/18 05:12:22;;;;;;;5.22;2.05;;;;;;;23.16;43.10;100969.41;5063687;28;20017;-57
2021/06/18 05:14:49;;;;;;;6.50;1.83;;;;;;;23.24;42.61;100969.84;5063795;28;20049;-57
2021/06/18 05:17:14;;;;;;;3.65;1.90;;;;;;;23.43;42.89;100961.75;5063480;28;20045;-57
2021/06/18 05:19:41;;;;;;;6.32;2.28;;;;;;;23.56;42.29;100959.28;5063612;28;20040;-56
2021/06/18 05:22:07;;;;;;;5.53;1.75;;;;;;;23.54;40.43;100971.72;5063133;28;20278;-57
2021/06/18 05:24:33;;;;;;;4.47;1.90;;;;;;;23.63;41.18;100958.94;5062809;28;20033;-56
2021/06/18 05:26:59;;;;;;;3.42;1.90;;;;;;;23.84;40.68;100960.38;5063038;28;20255;-57
2021/06/18 05:29:25;;;;;;;4.22;1.80;;;;;;;23.78;40.10;100956.28;5062896;28;20273;-57
2021/06/18 05:31:51;;;;;;;2.97;1.45;;;;;;;23.82;40.09;100962.28;5062693;28;20032;-57
2021/06/18 05:34:16;;;;;;;3.17;1.88;;;;;;;23.95;40.61;100955.34;5064316;28;20052;-57
2021/06/18 05:36:45;;;;;;;4.70;1.60;;;;;;;23.88;41.95;100961.94;5083268;28;20021;-57
2021/06/18 05:39:15;;;;;;;3.08;1.88;;;;;;;23.88;41.12;100961.94;5064763;28;20060;-57
2021/06/18 05:41:42;;;;;;;6.63;2.03;;;;;;;23.79;38.98;100951.88;5063241;28;20052;-57
2021/06/18 05:44:07;;;;;;;6.13;1.55;;;;;;;23.74;38.68;100965.34;5063408;28;20056;-57
2021/06/18 05:46:34;;;;;;;4.13;1.70;;;;;;;23.74;39.52;100965.34;5063118;28;20021;-57
2021/06/18 05:49:00;;;;;;;4.22;1.75;;;;;;;23.88;40.29;100966.41;5062840;28;20304;-57
2021/06/18 05:51:26;;;;;;;2.38;1.50;;;;;;;24.06;39.84;100960.06;5063041;28;20040;-57
2021/06/18 05:53:53;;;;;;;4.55;1.60;;;;;;;23.96;39.89;100945.66;5062949;28;20025;-57
2021/06/18 05:56:20;;;;;;;2.55;1.70;;;;;;;24.12;39.18;100953.56;5062955;28;20324;-57
2021/06/18 05:58:45;;;;;;;6.00;1.80;;;;;;;24.34;39.60;100947.84;5062926;28;20059;-57
2021/06/18 06:01:11;;;;;;;3.08;1.48;;;;;;;24.23;38.73;100953.78;5063043;28;20025;-58
2021/06/18 06:03:39;;;;;;;3.15;1.52;;;;;;;24.49;39.54;100961.97;5062759;28;20029;-56
2021/06/18 06:06:06;;;;;;;3.10;1.83;;;;;;;24.69;38.95;100952.88;5062876;28;20060;-57
2021/06/18 06:08:31;;;;;;;2.00;1.70;;;;;;;24.98;38.11;100953.75;5062651;28;20333;-58
2021/06/18 06:10:57;;;;;;;4.10;1.70;;;;;;;24.84;37.98;100953.75;5062761;28;20045;-57
2021/06/18 06:13:25;;;;;;;3.50;1.50;;;;;;;24.67;37.22;100956.56;5062510;28;20017;-59
2021/06/18 06:15:51;;;;;;;5.00;1.60;;;;;;;24.42;39.25;100956.19;5062658;28;20072;-57
2021/06/18 06:18:17;;;;;;;3.90;1.42;;;;;;;24.37;36.48;100954.75;5061262;28;20333;-58
2021/06/18 06:20:44;;;;;;;2.53;1.35;;;;;;;24.63;38.43;100956.75;5061255;28;20033;-58
2021/06/18 06:23:11;;;;;;;2.95;1.50;;;;;;;24.69;38.76;100955.53;5062532;28;20072;-57
2021/06/18 06:25:37;;;;;;;3.40;1.80;;;;;;;24.79;38.90;100955.81;5062061;28;20060;-58
2021/06/18 06:28:04;;;;;;;5.10;1.70;;;;;;;24.69;38.38;100955.53;5061872;28;20329;-56
2021/06/18 06:30:29;;;;;;;3.15;1.63;;;;;;;24.50;37.05;100955.75;5059114;28;20045;-57
2021/06/18 06:32:55;;;;;;;3.90;1.85;;;;;;;24.52;37.06;100958.31;5062336;28;20116;-58
2021/06/18 06:35:24;;;;;;;6.63;2.15;;;;;;;24.59;38.12;100947.25;5062321;28;20213;-57
2021/06/18 06:37:50;;;;;;;3.72;1.67;;;;;;;24.73;38.67;100954.41;5062033;28;20048;-58
2021/06/18 06:40:16;;;;;;;4.45;1.38;;;;;;;24.71;37.35;100958.06;5062216;28;20068;-57
2021/06/18 06:42:42;;;;;;;2.78;1.90;;;;;;;24.85;37.80;100954.59;5064698;28;20049;-58
2021/06/18 06:45:09;;;;;;;2.15;1.55;;;;;;;24.78;38.80;100959.41;5066641;28;20337;-57
2021/06/18 06:47:35;;;;;;;3.00;1.75;;;;;;;24.77;38.44;100960.34;5066468;28;20318;-58
2021/06/18 06:50:00;;;;;;;3.90;1.75;;;;;;;24.89;37.61;100951.66;5066187;28;20017;-57
2021/06/18 06:52:27;;;;;;;3.75;1.52;;;;;;;25.01;38.19;100965.09;5065372;28;20055;-57
2021/06/18 06:54:53;;;;;;;4.68;1.80;;;;;;;25.10;38.57;100953.94;5066315;28;20025;-57
2021/06/18 06:57:20;;;;;;;4.70;1.98;;;;;;;25.16;39.62;100951.75;5066105;28;20284;-57
2021/06/18 06:59:47;;;;;;;2.67;1.77;;;;;;;25.06;37.82;100957.72;5066117;28;20051;-57
2021/06/18 07:02:13;;;;;;;3.38;1.50;;;;;;;24.97;37.03;100965.28;5066121;28;20056;-57
2021/06/18 07:04:38;;;;;;;5.30;1.83;;;;;;;24.89;36.83;100956.94;5046142;28;20247;-57
2021/06/18 07:07:04;;;;;;;3.60;1.58;;;;;;;25.09;37.71;100957.53;5046306;28;20254;-57
2021/06/18 07:09:37;;;;;;;1.98;1.70;;;;;;;25.35;37.88;100952.44;5065349;28;20029;-57
2021/06/18 07:12:03;;;;;;;1.80;1.40;;;;;;;25.47;37.08;100954.31;5066113;28;20055;-56
2021/06/18 07:14:29;;;;;;;3.35;1.80;;;;;;;25.40;36.05;100956.50;5065473;28;20346;-57
2021/06/18 07:16:55;;;;;;;4.88;1.40;;;;;;;25.46;35.06;100955.25;5065707;28;20062;-57
2021/06/18 07:19:21;;;;;;;2.42;1.63;;;;;;;25.60;34.42;100954.38;5065684;28;20067;-57
2021/06/18 07:21:48;;;;;;;3.75;1.42;;;;;;;25.72;34.51;100955.38;5065620;28;20044;-56
2021/06/18 07:24:15;;;;;;;2.50;1.38;;;;;;;25.54;34.49;100957.41;5065912;28;20044;-57
2021/06/18 07:26:41;;;;;;;3.80;1.40;;;;;;;25.77;34.87;100956.78;5065809;28;20051;-57
2021/06/18 07:29:06;;;;;;;2.22;1.60;;;;;;;25.61;34.06;100948.97;5065642;28;20028;-57
2021/06/18 07:31:35;;;;;;;3.08;1.70;;;;;;;25.73;34.05;100943.81;5065398;28;20364;-58
2021/06/18 07:34:03;;;;;;;3.67;1.77;;;;;;;25.41;34.39;100942.28;5065490;28;20046;-57
2021/06/18 07:36:29;;;;;;;4.22;1.70;;;;;;;25.59;34.57;100942.88;5065255;28;20063;-58
2021/06/18 07:38:56;;;;;;;1.63;1.50;;;;;;;25.78;35.90;100947.88;5065251;28;20051;-58
2021/06/18 07:41:22;;;;;;;4.00;1.80;;;;;;;25.74;35.93;100946.38;5065458;28;20049;-59
2021/06/18 07:43:47;;;;;;;4.78;1.98;;;;;;;25.83;35.38;100951.06;5065325;28;20037;-58
2021/06/18 07:46:13;;;;;;;3.78;1.75;;;;;;;25.82;34.94;100954.69;5065425;28;20033;-57
2021/06/18 07:48:40;;;;;;;4.20;1.80;;;;;;;25.99;36.56;100942.09;5065279;28;20033;-57
2021/06/18 07:51:07;;;;;;;3.65;1.90;;;;;;;25.95;36.39;100925.53;5065167;28;20045;-58
2021/06/18 07:53:34;;;;;;;3.40;1.60;;;;;;;25.91;35.12;100937.31;5063063;28;20065;-57
2021/06/18 07:56:00;;;;;;;3.22;1.58;;;;;;;26.05;35.88;100940.88;5065063;28;20055;-57
2021/06/18 07:58:26;;;;;;;1.30;1.20;;;;;;;26.20;36.37;100934.53;5063917;28;20044;-57
2021/06/18 08:00:52;;;;;;;2.00;1.60;;;;;;;26.03;33.83;100932.16;5065213;28;20056;-57
2021/06/18 08:03:18;;;;;;;5.05;1.85;;;;;;;26.00;34.53;100917.25;5065032;28;20013;-58
2021/06/18 08:05:44;;;;;;;3.90;1.77;;;;;;;26.22;35.18;100922.00;5064880;28;20256;-58
2021/06/18 08:08:12;;;;;;;3.75;1.88;;;;;;;26.18;35.05;100932.00;5064785;28;20021;-57
2021/06/18 08:10:38;;;;;;;3.72;1.65;;;;;;;26.14;34.12;100924.34;5064789;28;20049;-57
2021/06/18 08:13:04;;;;;;;4.60;1.83;;;;;;;26.17;35.06;100922.31;5065118;28;20053;-57
2021/06/18 08:15:30;;;;;;;4.32;1.83;;;;;;;26.39;34.82;100920.84;5064862;28;20090;-57
2021/06/18 08:17:56;;;;;;;3.28;1.70;;;;;;;26.34;34.54;100929.13;5064836;28;20051;-57
2021/06/18 08:20:25;;;;;;;3.63;1.98;;;;;;;26.28;34.80;100913.63;5064645;28;20056;-57
2021/06/18 08:22:51;;;;;;;4.75;2.05;;;;;;;26.11;35.14;100920.06;5064668;28;20234;-58
2021/06/18 08:25:17;;;;;;;3.20;1.60;;;;;;;26.44;35.27;100917.91;5064529;28;20040;-58
2021/06/18 08:27:43;;;;;;;4.93;2.05;;;;;;;26.51;36.79;100921.84;5064773;28;20329;-56
2021/06/18 08:30:09;;;;;;;3.53;1.85;;;;;;;26.68;37.43;100924.19;5064357;28;20123;-57
2021/06/18 08:32:36;;;;;;;3.70;1.95;;;;;;;26.51;35.33;100922.69;5063427;28;20051;-57
2021/06/18 08:35:02;;;;;;;5.20;1.95;;;;;;;26.64;35.03;100922.69;5064269;28;20048;-57
2021/06/18 08:37:28;;;;;;;4.90;2.10;;;;;;;26.62;34.96;100916.63;5064800;28;20059;-57
2021/06/18 08:39:54;;;;;;;4.00;2.10;;;;;;;26.43;34.19;100913.53;5080969;28;20044;-58
2021/06/18 08:42:20;;;;;;;5.97;2.22;;;;;;;26.57;35.40;100912.59;5065223;28;20047;-59
2021/06/18 08:44:46;;;;;;;3.20;2.10;;;;;;;26.75;34.78;100915.78;5064075;28;20025;-57
2021/06/18 08:47:15;;;;;;;4.45;2.40;;;;;;;26.44;34.38;100909.94;5064002;28;20021;-57
2021/06/18 08:49:41;;;;;;;5.13;2.35;;;;;;;26.66;34.21;100917.25;5063887;28;20282;-57
2021/06/18 08:52:08;;;;;;;5.43;2.40;;;;;;;26.77;33.61;100916.56;5059306;28;20088;-57
2021/06/18 08:54:44;;;;;;;4.13;2.15;;;;;;;26.83;32.61;100910.78;5044017;28;20048;-57
2021/06/18 08:57:15;;;;;;;4.82;2.25;;;;;;;27.03;34.38;100917.34;5043715;28;20040;-57
2021/06/18 08:59:42;;;;;;;5.45;2.05;;;;;;;27.16;35.20;100907.56;5063360;28;20075;-58
2021/06/18 09:02:09;;;;;;;10.57;3.20;;;;;;;26.74;35.59;100864.44;5064114;28;20049;-58
2021/06/18 09:05:06;;;;;;;6.20;2.58;;;;;;;26.88;34.03;100906.00;5063567;28;20045;-58
2021/06/18 09:07:47;;;;;;;3.47;2.30;;;;;;;26.52;32.66;100904.91;5063632;28;20047;-58
2021/06/18 09:10:30;;;;;;;6.30;2.30;;;;;;;26.52;32.95;100857.97;5063586;28;20243;-58
2021/06/18 09:13:06;;;;;;;6.65;2.65;;;;;;;26.39;33.31;100896.09;5063748;28;20044;-57
2021/06/18 09:15:32;;;;;;;4.97;2.30;;;;;;;26.84;35.31;100891.22;5063716;28;20056;-58
2021/06/18 09:18:36;;;;;;;4.88;2.50;;;;;;;26.92;34.08;100899.53;5063436;28;20285;-58
2021/06/18 09:21:02;;;;;;;5.13;2.40;;;;;;;26.74;33.32;100900.81;5063267;28;20056;-57
2021/06/18 09:23:34;;;;;;;4.75;2.38;;;;;;;27.01;33.70;100893.53;5063512;28;20044;-56
2021/06/18 09:26:15;;;;;;;3.70;2.72;;;;;;;27.03;34.26;100891.59;5063254;28;20222;-58
2021/06/18 09:29:03;;;;;;;4.68;2.42;;;;;;;27.12;33.83;100882.13;5063282;28;20055;-58
2021/06/18 09:31:34;;;;;;;5.05;2.40;;;;;;;27.15;33.71;100873.06;5062818;28;20097;-59
2021/06/18 09:34:02;;;;;;;4.70;2.70;;;;;;;27.06;33.36;100881.72;5063208;28;20039;-58
2021/06/18 09:36:27;;;;;;;5.97;2.75;;;;;;;26.64;33.32;100885.47;5063404;28;20352;-57
2021/06/18 09:38:59;;;;;;;6.78;2.60;;;;;;;26.51;33.19;100842.13;5062361;28;20017;-58
2021/06/18 09:41:41;;;;;;;2.78;2.15;;;;;;;26.97;33.83;100875.25;5063169;28;20293;-58
2021/06/18 09:44:27;;;;;;;4.13;2.42;;;;;;;26.96;33.41;100874.38;5063091;28;20322;-58
2021/06/18 09:46:57;;;;;;;4.18;2.20;;;;;;;27.03;34.48;100872.97;5062963;28;20052;-57
2021/06/18 09:49:35;;;;;;;5.40;2.15;;;;;;;27.20;35.33;100871.78;5063139;28;20048;-58
2021/06/18 09:52:09;;;;;;;5.00;2.60;;;;;;;27.29;36.15;100864.97;5062989;28;20044;-58
2021/06/18 09:54:44;;;;;;;6.32;2.55;;;;;;;27.08;34.81;100824.81;5063016;28;20045;-58
2021/06/18 09:57:15;;;;;;;8.43;3.13;;;;;;;27.49;36.76;100863.53;5062557;28;20055;-58
2021/06/18 10:00:04;;;;;;;4.83;2.20;;;;;;;27.21;34.88;100830.06;5062115;28;20056;-58
2021/06/18 10:02:45;;;;;;;7.32;2.40;;;;;;;27.34;34.21;100865.47;5061644;28;20488;-58
2021/06/18 10:05:14;;;;;;;4.63;2.47;;;;;;;27.37;34.52;100861.75;5062257;28;20329;-57
2021/06/18 10:07:42;;;;;;;8.15;2.42;;;;;;;26.80;33.13;100821.47;5062162;28;20041;-57
2021/06/18 10:10:14;;;;;;;3.95;2.17;;;;;;;27.01;33.48;100820.91;5062546;28;20085;-57
2021/06/18 10:12:41;;;;;;;5.47;2.65;;;;;;;27.11;34.43;100855.66;5062704;28;20352;-58
2021/06/18 10:15:13;;;;;;;6.72;2.47;;;;;;;26.75;33.67;100820.97;5062667;28;20340;-57
2021/06/18 10:17:43;;;;;;;3.28;2.25;;;;;;;26.91;33.87;100811.88;5061085;28;20071;-57
2021/06/18 10:20:19;;;;;;;7.40;2.42;;;;;;;26.72;32.94;100807.88;5061724;28;20041;-58
2021/06/18 10:23:06;;;;;;;6.78;2.38;;;;;;;27.04;34.48;100856.06;5062531;28;20044;-58
2021/06/18 10:25:37;;;;;;;5.72;2.10;;;;;;;27.14;35.01;100852.78;5062383;28;20059;-57
2021/06/18 10:28:05;;;;;;;3.17;2.10;;;;;;;27.23;35.63;100840.59;5062256;28;20270;-56
2021/06/18 10:30:46;;;;;;;2.95;2.22;;;;;;;27.11;36.33;100810.44;5062134;28;20326;-56
2021/06/18 10:33:39;;;;;;;6.53;2.45;;;;;;;27.21;34.06;100846.88;5062287;28;20040;-58
2021/06/18 10:36:06;;;;;;;5.25;2.50;;;;;;;27.29;33.78;100848.13;5061230;28;20345;-58
2021/06/18 10:38:43;;;;;;;7.32;2.70;;;;;;;26.70;32.82;100805.31;5061895;28;20053;-58
2021/06/18 10:41:12;;;;;;;6.82;2.40;;;;;;;27.15;34.17;100847.34;5062498;28;20159;-58
2021/06/18 10:43:44;;;;;;;5.18;2.47;;;;;;;27.28;33.60;100844.63;5062185;28;20330;-58
2021/06/18 10:46:13;;;;;;;5.88;2.78;;;;;;;26.80;32.66;100848.06;5062230;28;20044;-57
2021/06/18 10:48:51;;;;;;;8.75;2.33;;;;;;;26.93;33.51;100832.06;5062081;28;20047;-57
2021/06/18 10:51:26;;;;;;;4.35;2.67;;;;;;;26.97;33.51;100833.53;5062022;28;20045;-58
2021/06/18 10:54:05;;;;;;;5.53;2.22;;;;;;;26.51;33.74;100773.88;5061944;28;20267;-56
2021/06/18 10:56:49;;;;;;;3.17;2.30;;;;;;;26.90;33.11;100820.81;5061892;28;20048;-57
2021/06/18 10:59:29;;;;;;;6.60;2.17;;;;;;;27.00;33.86;100822.69;5061860;28;20281;-57
2021/06/18 11:01:55;;;;;;;4.25;2.55;;;;;;;27.11;33.72;100824.56;5062015;28;20045;-57
2021/06/18 11:04:43;;;;;;;6.75;2.42;;;;;;;26.70;33.90;100776.09;5061722;28;20040;-58
2021/06/18 11:07:25;;;;;;;5.65;2.40;;;;;;;27.10;34.85;100817.56;5064085;28;20041;-58
2021/06/18 11:09:54;;;;;;;8.25;2.45;;;;;;;27.20;35.11;100813.25;5061693;28;20353;-57
2021/06/18 11:12:43;;;;;;;6.78;2.30;;;;;;;27.30;36.03;100808.09;5061889;28;20322;-59
2021/06/18 11:15:15;;;;;;;3.90;2.40;;;;;;;27.28;35.85;100814.50;5061983;28;20326;-58
2021/06/18 11:17:53;;;;;;;7.28;3.00;;;;;;;26.96;34.44;100773.34;5061753;28;20052;-58
2021/06/18 11:20:25;;;;;;;5.60;2.97;;;;;;;27.01;35.87;100765.88;5061896;28;20044;-58
2021/06/18 11:23:10;;;;;;;;;;;;;;;27.29;36.18;100795.78;5062333;28;20041;-58
2021/06/18 11:25:39;;;;;;;4.55;2.50;;;;;;;27.35;34.99;100805.16;5061904;28;19956;-58
2021/06/18 11:28:21;;;;;;;6.13;2.30;;;;;;;27.35;35.37;100806.00;5060708;28;20268;-58
2021/06/18 11:31:08;;;;;;;5.15;2.28;;;;;;;27.36;34.07;100804.16;5065652;28;20055;-59
2021/06/18 11:33:46;;;;;;;8.85;2.83;;;;;;;27.40;33.85;100799.47;5065623;28;20049;-59
2021/06/18 11:36:17;;;;;;;6.72;2.90;;;;;;;27.19;33.33;100797.41;5065604;28;20049;-58